Time;durP1;ratioP1;P1;durP2;ratioP2;P2;SDS_P1;SDS_P2;PMS_P1;PMS_P2;Temp;Humidity;BMP_temperature;BMP_pressure;BME280_temperature;BME280_humidity;BME280_pressure;Samples;Min_cycle;Max_cycle;Signal;HPM_P1;HPM_P2
2022/02/12 00:00:33;;;;;;;15.32;5.75;;;0.60;95.70;;;;;;5069341;28;20131;-58
2022/02/12 00:02:59;;;;;;;17.50;6.43;;;0.60;96.00;;;;;;5064822;28;20035;-58
2022/02/12 00:05:25;;;;;;;14.23;5.20;;;0.60;96.20;;;;;;5069483;28;20034;-58
2022/02/12 00:07:52;;;;;;;7.63;4.07;;;0.60;96.30;;;;;;5068961;28;20025;-58
2022/02/12 00:10:18;;;;;;;11.43;5.93;;;0.60;96.40;;;;;;5069043;28;20414;-58
2022/02/12 00:12:43;;;;;;;14.35;6.65;;;0.60;96.70;;;;;;5066314;28;20016;-58
2022/02/12 00:15:09;;;;;;;15.20;6.40;;;0.50;97.20;;;;;;5068336;28;20036;-58
2022/02/12 00:17:35;;;;;;;22.10;7.40;;;0.40;97.70;;;;;;5064032;28;20508;-58
2022/02/12 00:20:02;;;;;;;17.23;7.07;;;0.40;98.10;;;;;;5068839;28;20044;-58
2022/02/12 00:22:27;;;;;;;16.92;6.40;;;0.30;98.60;;;;;;5068831;28;20056;-58
2022/02/12 00:24:53;;;;;;;9.73;6.00;;;0.30;99.00;;;;;;5064782;28;20533;-58
2022/02/12 00:27:18;;;;;;;11.77;5.53;;;0.30;99.00;;;;;;5065975;28;20123;-58
2022/02/12 00:29:44;;;;;;;8.57;4.65;;;0.30;98.90;;;;;;5061957;28;20028;-58
2022/02/12 00:32:10;;;;;;;9.80;5.60;;;0.30;98.80;;;;;;5060385;28;20035;-58
2022/02/12 00:34:35;;;;;;;8.38;3.55;;;0.40;98.70;;;;;;5068568;28;20477;-58
2022/02/12 00:37:01;;;;;;;10.32;3.45;;;0.40;98.50;;;;;;5067266;28;20020;-58
2022/02/12 00:39:26;;;;;;;12.45;5.82;;;0.40;98.30;;;;;;5068974;28;20111;-58
2022/02/12 00:41:52;;;;;;;11.77;5.03;;;0.40;98.30;;;;;;5062635;28;20016;-58
2022/02/12 00:44:18;;;;;;;10.48;4.25;;;0.40;98.30;;;;;;5063032;28;20420;-58
2022/02/12 00:46:43;;;;;;;5.95;3.53;;;0.40;98.20;;;;;;5065937;28;20028;-59
2022/02/12 00:49:09;;;;;;;9.93;4.60;;;0.40;98.10;;;;;;5071356;28;20032;-58
2022/02/12 00:51:34;;;;;;;13.20;4.22;;;0.40;98.00;;;;;;5066290;28;20533;-58
2022/02/12 00:54:05;;;;;;;10.68;5.43;;;0.30;98.00;;;;;;5064175;28;20027;-58
2022/02/12 00:56:31;;;;;;;20.13;6.88;;;0.30;98.30;;;;;;5067860;28;20504;-58
2022/02/12 00:58:56;;;;;;;15.40;6.47;;;0.30;98.80;;;;;;5065221;28;20024;-58
2022/02/12 01:01:22;;;;;;;17.08;6.90;;;0.20;99.20;;;;;;5064397;28;20054;-58
2022/02/12 01:03:48;;;;;;;13.82;5.97;;;0.20;99.40;;;;;;5065524;28;20544;-58
2022/02/12 01:06:13;;;;;;;17.25;6.43;;;0.10;99.60;;;;;;5065595;28;20032;-58
2022/02/12 01:08:39;;;;;;;22.70;6.90;;;0.10;99.90;;;;;;5068552;28;20052;-58
2022/02/12 01:11:04;;;;;;;12.38;6.20;;;0.10;99.90;;;;;;5065495;28;20044;-58
2022/02/12 01:13:31;;;;;;;9.73;5.47;;;0.00;99.90;;;;;;5066974;28;20109;-58
2022/02/12 01:15:56;;;;;;;21.23;7.63;;;0.10;99.90;;;;;;5068361;28;20024;-58
2022/02/12 01:18:22;;;;;;;16.60;6.93;;;0.00;99.90;;;;;;5065351;28;20056;-58
2022/02/12 01:20:48;;;;;;;15.52;5.70;;;0.00;99.90;;;;;;5068302;28;20053;-58
2022/02/12 01:23:13;;;;;;;8.65;4.72;;;0.00;99.90;;;;;;5068482;28;20577;-58
2022/02/12 01:25:39;;;;;;;14.27;6.57;;;0.00;99.90;;;;;;5066499;28;20502;-58
2022/02/12 01:28:05;;;;;;;14.80;6.55;;;0.00;99.90;;;;;;5067257;28;20518;-58
2022/02/12 01:30:30;;;;;;;17.20;6.45;;;0.00;99.90;;;;;;5062392;28;20021;-58
2022/02/12 01:32:56;;;;;;;16.75;5.97;;;0.00;99.90;;;;;;5068289;28;20027;-58
2022/02/12 01:35:24;;;;;;;13.38;5.78;;;0.00;99.90;;;;;;5068378;28;20044;-58
2022/02/12 01:37:52;;;;;;;12.70;5.97;;;0.00;99.90;;;;;;5068054;28;20107;-58
2022/02/12 01:40:21;;;;;;;10.70;4.90;;;0.00;99.90;;;;;;5061211;28;20024;-58
2022/02/12 01:42:50;;;;;;;15.27;5.65;;;0.00;99.90;;;;;;5066941;28;20024;-58
2022/02/12 01:45:15;;;;;;;11.88;5.38;;;0.00;99.90;;;;;;5062739;28;20381;-58
2022/02/12 01:47:41;;;;;;;11.85;4.97;;;0.00;99.90;;;;;;5068206;28;20028;-56
2022/02/12 01:50:07;;;;;;;12.23;5.88;;;-0.10;99.90;;;;;;5065376;28;20587;-58
2022/02/12 01:52:33;;;;;;;15.05;6.50;;;-0.10;99.90;;;;;;5069851;28;20016;-58
2022/02/12 01:55:00;;;;;;;20.52;7.00;;;-0.10;99.90;;;;;;5073483;28;20437;-58
2022/02/12 01:57:26;;;;;;;15.35;7.20;;;-0.10;99.90;;;;;;5071667;28;20392;-58
2022/02/12 01:59:51;;;;;;;15.38;6.60;;;-0.10;99.90;;;;;;5071302;28;20029;-58
2022/02/12 02:02:17;;;;;;;15.13;6.10;;;-0.10;99.90;;;;;;5068519;28;20032;-58
2022/02/12 02:04:42;;;;;;;15.82;6.15;;;-0.10;99.90;;;;;;5065939;28;20788;-58
2022/02/12 02:07:11;;;;;;;12.35;6.65;;;-0.10;99.90;;;;;;5069525;28;20100;-58
2022/02/12 02:09:36;;;;;;;15.85;6.47;;;-0.10;99.90;;;;;;5071594;28;20020;-58
2022/02/12 02:12:03;;;;;;;12.80;6.22;;;-0.10;99.90;;;;;;5071387;28;20079;-58
2022/02/12 02:14:40;;;;;;;12.48;5.85;;;0.00;99.90;;;;;;5071683;28;20033;-58
2022/02/12 02:17:10;;;;;;;13.43;6.70;;;0.00;99.90;;;;;;5060416;28;20021;-58
2022/02/12 02:19:36;;;;;;;14.65;7.55;;;-0.10;99.90;;;;;;5068277;28;20106;-58
2022/02/12 02:22:03;;;;;;;22.60;8.23;;;-0.10;99.90;;;;;;5071055;28;20492;-58
2022/02/12 02:24:29;;;;;;;19.38;7.72;;;-0.10;99.90;;;;;;5070890;28;20028;-58
2022/02/12 02:27:11;;;;;;;15.60;8.05;;;-0.10;99.90;;;;;;5070973;28;20021;-58
2022/02/12 02:29:41;;;;;;;14.57;8.52;;;-0.10;99.90;;;;;;5068783;28;20017;-58
2022/02/12 02:32:08;;;;;;;21.33;9.73;;;-0.10;99.90;;;;;;5073869;28;20092;-58
2022/02/12 02:34:34;;;;;;;23.13;9.90;;;-0.20;99.90;;;;;;5065675;28;20074;-58
2022/02/12 02:36:59;;;;;;;23.45;10.15;;;-0.20;99.90;;;;;;5068304;28;20032;-58
2022/02/12 02:39:25;;;;;;;22.00;10.70;;;-0.30;99.90;;;;;;5068227;28;20043;-58
2022/02/12 02:41:51;;;;;;;21.95;11.02;;;-0.30;99.90;;;;;;5070780;28;20116;-58
2022/02/12 02:44:16;;;;;;;25.67;11.05;;;-0.30;99.90;;;;;;5068296;28;20025;-58
2022/02/12 02:46:42;;;;;;;23.65;11.43;;;-0.40;99.90;;;;;;5068707;28;20439;-58
2022/02/12 02:49:07;;;;;;;28.25;10.77;;;-0.40;99.90;;;;;;5073507;28;20197;-58
2022/02/12 02:57:01;;;;;;;25.00;10.25;;;-0.40;99.90;;;;;;5067005;28;20035;-58
2022/02/12 02:59:27;;;;;;;20.83;9.20;;;-0.40;99.90;;;;;;5065462;28;20024;-58
2022/02/12 03:01:55;;;;;;;20.23;9.38;;;-0.40;99.90;;;;;;5070359;28;20025;-58
2022/02/12 03:04:22;;;;;;;20.77;9.93;;;-0.40;99.90;;;;;;5067091;28;20025;-58
2022/02/12 03:06:48;;;;;;;17.77;8.90;;;-0.40;99.90;;;;;;5067442;28;20459;-58
2022/02/12 03:09:14;;;;;;;17.25;8.95;;;-0.30;99.90;;;;;;5065295;28;20108;-58
2022/02/12 03:11:39;;;;;;;28.95;9.85;;;-0.30;99.90;;;;;;5073410;28;20145;-58
2022/02/12 03:14:05;;;;;;;25.20;10.05;;;-0.30;99.90;;;;;;5081536;28;20121;-58
2022/02/12 03:16:31;;;;;;;18.35;9.38;;;-0.30;99.90;;;;;;5070319;28;20043;-58
2022/02/12 03:18:57;;;;;;;20.90;8.95;;;-0.40;99.90;;;;;;5068319;28;20589;-58
2022/02/12 03:21:23;;;;;;;21.10;8.77;;;-0.30;99.90;;;;;;5067198;28;20132;-58
2022/02/12 03:23:49;;;;;;;20.50;9.40;;;-0.30;99.90;;;;;;5069736;28;20094;-58
2022/02/12 03:26:14;;;;;;;17.45;7.55;;;-0.30;99.90;;;;;;5066788;28;20480;-58
2022/02/12 03:28:40;;;;;;;20.05;8.73;;;-0.40;99.90;;;;;;5067140;28;20025;-58
2022/02/12 03:31:07;;;;;;;27.35;9.50;;;-0.40;99.90;;;;;;5066620;28;20024;-59
2022/02/12 03:33:32;;;;;;;22.08;8.75;;;-0.40;99.90;;;;;;5069406;28;20021;-58
2022/02/12 03:35:58;;;;;;;21.42;8.23;;;-0.40;99.90;;;;;;5065582;28;20501;-58
2022/02/12 03:38:27;;;;;;;23.52;7.82;;;-0.40;99.90;;;;;;5069590;28;20514;-58
2022/02/12 03:40:56;;;;;;;17.52;7.50;;;-0.40;99.90;;;;;;5065200;28;20123;-58
2022/02/12 03:43:22;;;;;;;21.75;7.93;;;-0.40;99.90;;;;;;5066697;28;20400;-58
2022/02/12 03:45:48;;;;;;;16.92;7.68;;;-0.40;99.90;;;;;;5072197;28;20024;-58
2022/02/12 03:48:14;;;;;;;21.60;8.70;;;-0.40;99.90;;;;;;5068787;28;20060;-58
2022/02/12 03:50:40;;;;;;;17.35;7.95;;;-0.40;99.90;;;;;;5067664;28;20012;-58
2022/02/12 03:53:07;;;;;;;19.52;7.93;;;-0.40;99.90;;;;;;5062538;28;20514;-58
2022/02/12 03:55:37;;;;;;;16.88;6.97;;;-0.40;99.90;;;;;;5068913;28;20032;-58
2022/02/12 03:58:04;;;;;;;21.05;7.22;;;-0.30;99.90;;;;;;5069132;28;20498;-58
2022/02/12 04:00:29;;;;;;;24.92;7.93;;;-0.30;99.90;;;;;;5066374;28;20435;-58
2022/02/12 04:02:55;;;;;;;21.75;7.95;;;-0.30;99.90;;;;;;5066570;28;20024;-58
2022/02/12 04:05:21;;;;;;;21.98;7.68;;;-0.30;99.90;;;;;;5071792;28;20082;-58
2022/02/12 04:07:47;;;;;;;20.67;6.85;;;-0.30;99.90;;;;;;5069172;28;20095;-58
2022/02/12 04:10:15;;;;;;;23.75;7.50;;;-0.30;99.90;;;;;;5068727;28;20028;-58
2022/02/12 04:12:42;;;;;;;23.02;7.57;;;-0.30;99.90;;;;;;5063783;28;20115;-58
2022/02/12 04:15:09;;;;;;;15.20;5.97;;;-0.40;99.90;;;;;;5065625;28;20039;-58
2022/02/12 04:17:35;;;;;;;17.02;7.45;;;-0.30;99.90;;;;;;5066300;28;20051;-57
2022/02/12 04:20:07;;;;;;;18.27;8.82;;;-0.40;99.90;;;;;;5065820;28;20475;-59
2022/02/12 04:22:33;;;;;;;19.20;7.13;;;-0.40;99.90;;;;;;5068779;28;20055;-58
2022/02/12 04:25:00;;;;;;;23.75;8.27;;;-0.40;99.90;;;;;;5066022;28;20055;-58
2022/02/12 04:27:27;;;;;;;26.63;7.43;;;-0.40;99.90;;;;;;5068947;28;20031;-57
2022/02/12 04:29:53;;;;;;;21.55;7.38;;;-0.40;99.90;;;;;;5065854;28;20024;-58
2022/02/12 04:32:20;;;;;;;23.67;8.70;;;-0.40;99.90;;;;;;5068796;28;20178;-58
2022/02/12 04:34:49;;;;;;;25.33;8.95;;;-0.40;99.90;;;;;;5067260;28;20384;-58
2022/02/12 04:37:15;;;;;;;22.60;8.40;;;-0.40;99.90;;;;;;5068838;28;20035;-58
2022/02/12 04:39:41;;;;;;;23.60;8.75;;;-0.50;99.90;;;;;;5068802;28;20025;-57
2022/02/12 04:42:11;;;;;;;21.85;7.50;;;-0.50;99.90;;;;;;5066082;28;20442;-58
2022/02/12 04:44:40;;;;;;;23.00;7.40;;;-0.50;99.90;;;;;;5060971;28;20502;-58
2022/02/12 04:47:07;;;;;;;28.27;8.07;;;-0.40;99.90;;;;;;5063076;28;20037;-59
2022/02/12 04:49:32;;;;;;;34.13;8.77;;;-0.50;99.90;;;;;;5065659;28;20021;-58
2022/02/12 04:51:58;;;;;;;21.30;7.80;;;-0.50;99.90;;;;;;5064785;28;20025;-58
2022/02/12 04:54:23;;;;;;;21.50;8.18;;;-0.50;99.90;;;;;;5065925;28;20063;-58
2022/02/12 04:56:49;;;;;;;24.15;8.45;;;-0.50;99.90;;;;;;5068695;28;20044;-58
2022/02/12 04:59:16;;;;;;;28.00;8.70;;;-0.50;99.90;;;;;;5068664;28;20103;-58
2022/02/12 05:01:41;;;;;;;23.00;7.35;;;-0.60;99.90;;;;;;5068529;28;20545;-58
2022/02/12 05:04:07;;;;;;;21.23;8.35;;;-0.50;99.90;;;;;;5065810;28;20036;-58
2022/02/12 05:06:32;;;;;;;30.48;7.68;;;-0.50;99.90;;;;;;5063573;28;20063;-58
2022/02/12 05:08:58;;;;;;;26.15;7.93;;;-0.60;99.90;;;;;;5066114;28;20025;-57
2022/02/12 05:11:23;;;;;;;23.92;8.10;;;-0.60;99.90;;;;;;5066424;28;20087;-57
2022/02/12 05:13:49;;;;;;;20.85;8.02;;;-0.50;99.90;;;;;;5067683;28;20039;-58
2022/02/12 05:16:15;;;;;;;23.00;7.88;;;-0.50;99.90;;;;;;5062260;28;20017;-58
2022/02/12 05:18:40;;;;;;;23.08;8.40;;;-0.50;99.90;;;;;;5066184;28;20054;-58
2022/02/12 05:21:05;;;;;;;22.90;8.40;;;-0.50;99.90;;;;;;5067999;28;20434;-58
2022/02/12 05:23:31;;;;;;;25.35;8.88;;;-0.50;99.90;;;;;;5065506;28;20550;-58
2022/02/12 05:25:57;;;;;;;31.60;9.52;;;-0.50;99.90;;;;;;5068160;28;20036;-58
2022/02/12 05:28:22;;;;;;;22.92;8.98;;;-0.50;99.90;;;;;;5072277;28;20541;-58
2022/02/12 05:30:48;;;;;;;34.40;10.63;;;-0.50;99.90;;;;;;5074862;28;20028;-57
2022/02/12 05:33:13;;;;;;;28.23;9.85;;;-0.50;99.90;;;;;;5065154;28;20021;-58
2022/02/12 05:35:39;;;;;;;21.73;8.98;;;-0.50;99.90;;;;;;5069062;28;20477;-58
2022/02/12 05:38:04;;;;;;;30.67;10.48;;;-0.50;99.90;;;;;;5071917;28;20032;-58
2022/02/12 05:40:30;;;;;;;25.08;9.20;;;-0.50;99.90;;;;;;5071796;28;20118;-58
2022/02/12 05:42:55;;;;;;;22.13;9.50;;;-0.50;99.90;;;;;;5069200;28;20029;-58
2022/02/12 05:45:21;;;;;;;29.80;9.10;;;-0.50;99.90;;;;;;5069360;28;20037;-57
2022/02/12 05:47:47;;;;;;;32.38;9.55;;;-0.50;99.90;;;;;;5071693;28;20392;-58
2022/02/12 05:50:13;;;;;;;30.88;9.10;;;-0.60;99.90;;;;;;5066044;28;20042;-58
2022/02/12 05:52:38;;;;;;;31.80;10.27;;;-0.50;99.90;;;;;;5071524;28;20427;-58
2022/02/12 05:55:04;;;;;;;34.83;9.65;;;-0.50;99.90;;;;;;5071696;28;20024;-58
2022/02/12 05:57:30;;;;;;;26.13;9.90;;;-0.50;99.90;;;;;;5071513;28;20024;-58
2022/02/12 05:59:56;;;;;;;27.95;9.63;;;-0.50;99.90;;;;;;5068901;28;20480;-57
2022/02/12 06:02:21;;;;;;;22.63;9.10;;;-0.50;99.90;;;;;;5068935;28;20522;-58
2022/02/12 06:04:47;;;;;;;25.52;10.45;;;-0.50;99.90;;;;;;5068584;28;20131;-58
2022/02/12 06:07:13;;;;;;;34.78;10.27;;;-0.50;99.90;;;;;;5071052;28;20032;-58
2022/02/12 06:09:38;;;;;;;26.10;11.48;;;-0.50;99.90;;;;;;5071404;28;20099;-58
2022/02/12 06:12:05;;;;;;;21.05;8.55;;;-0.50;99.90;;;;;;5068696;28;20039;-58
2022/02/12 06:14:31;;;;;;;28.55;10.23;;;-0.50;99.90;;;;;;5065568;28;20032;-58
2022/02/12 06:16:58;;;;;;;25.48;9.98;;;-0.50;99.90;;;;;;5065991;28;20025;-58
2022/02/12 06:19:24;;;;;;;22.80;9.30;;;-0.40;99.90;;;;;;5069079;28;20045;-58
2022/02/12 06:21:50;;;;;;;27.70;9.82;;;-0.50;99.90;;;;;;5067460;28;20059;-58
2022/02/12 06:24:16;;;;;;;28.65;9.18;;;-0.40;99.90;;;;;;5068609;28;20025;-58
2022/02/12 06:26:46;;;;;;;33.08;10.68;;;-0.40;99.90;;;;;;5071094;28;20035;-58
2022/02/12 06:29:13;;;;;;;27.52;8.80;;;-0.40;99.90;;;;;;5071189;28;20013;-58
2022/02/12 06:31:39;;;;;;;21.02;8.85;;;-0.40;99.90;;;;;;5073644;28;20020;-58
2022/02/12 06:34:05;;;;;;;32.63;9.65;;;-0.40;99.90;;;;;;5074766;28;20027;-58
2022/02/12 06:36:31;;;;;;;23.40;9.82;;;-0.40;99.90;;;;;;5074738;28;20441;-58
2022/02/12 06:38:56;;;;;;;25.80;8.85;;;-0.40;99.90;;;;;;5069962;28;20036;-58
2022/02/12 06:41:22;;;;;;;26.63;9.27;;;-0.30;99.90;;;;;;5073683;28;20032;-58
2022/02/12 06:43:47;;;;;;;28.60;9.77;;;-0.40;99.90;;;;;;5072370;28;20032;-58
2022/02/12 06:46:14;;;;;;;22.25;8.60;;;-0.30;99.90;;;;;;5074117;28;20081;-58
2022/02/12 06:48:40;;;;;;;23.05;8.70;;;-0.20;99.90;;;;;;5074568;28;20104;-57
2022/02/12 06:51:05;;;;;;;25.15;8.50;;;-0.20;99.90;;;;;;5074471;28;20071;-58
2022/02/12 06:53:33;;;;;;;31.08;9.40;;;-0.20;99.90;;;;;;5073205;28;20027;-58
2022/02/12 06:56:02;;;;;;;25.40;9.93;;;-0.10;99.90;;;;;;5074346;28;20051;-58
2022/02/12 06:58:28;;;;;;;19.83;8.57;;;-0.10;99.90;;;;;;5074487;28;20069;-58
2022/02/12 07:00:53;;;;;;;25.25;9.30;;;-0.10;99.90;;;;;;5074189;28;20103;-58
2022/02/12 07:03:19;;;;;;;22.05;8.15;;;-0.10;99.90;;;;;;5074283;28;20495;-58
2022/02/12 07:05:44;;;;;;;21.17;8.57;;;-0.10;99.90;;;;;;5073993;28;20118;-57
2022/02/12 07:08:10;;;;;;;24.83;8.52;;;-0.10;99.90;;;;;;5074081;28;20094;-58
2022/02/12 07:10:36;;;;;;;29.38;8.45;;;-0.10;99.90;;;;;;5072777;28;20020;-57
2022/02/12 07:13:02;;;;;;;21.83;7.82;;;-0.10;99.90;;;;;;5073997;28;20025;-58
2022/02/12 07:15:28;;;;;;;24.60;8.93;;;-0.10;99.90;;;;;;5072696;28;20028;-58
2022/02/12 07:17:54;;;;;;;17.35;7.60;;;-0.10;99.90;;;;;;5073673;28;20669;-58
2022/02/12 07:20:19;;;;;;;24.05;8.07;;;-0.10;99.90;;;;;;5059876;28;20072;-57
2022/02/12 07:22:45;;;;;;;21.52;7.93;;;-0.10;99.90;;;;;;5052471;28;20082;-57
2022/02/12 07:25:12;;;;;;;18.58;7.32;;;-0.10;99.90;;;;;;5053623;28;20037;-57
2022/02/12 07:27:38;;;;;;;15.35;7.65;;;0.00;99.90;;;;;;5057077;28;20484;-57
2022/02/12 07:30:05;;;;;;;25.70;8.63;;;-0.10;99.90;;;;;;5066607;28;20020;-58
2022/02/12 07:32:30;;;;;;;21.40;7.75;;;-0.10;99.90;;;;;;5071835;28;20645;-57
2022/02/12 07:34:56;;;;;;;19.23;6.78;;;-0.10;99.90;;;;;;5069788;28;20056;-56
2022/02/12 07:37:22;;;;;;;22.67;7.82;;;0.00;99.90;;;;;;5072974;28;20029;-58
2022/02/12 07:39:48;;;;;;;20.67;7.22;;;0.00;99.90;;;;;;5072480;28;20279;-58
2022/02/12 07:42:13;;;;;;;21.40;7.47;;;0.00;99.90;;;;;;5073450;28;20025;-58
2022/02/12 07:44:39;;;;;;;25.10;7.10;;;0.00;99.90;;;;;;5071739;28;20021;-58
2022/02/12 07:47:05;;;;;;;21.67;7.18;;;0.10;99.90;;;;;;5071770;28;20104;-58
2022/02/12 07:49:30;;;;;;;15.48;7.50;;;0.10;99.90;;;;;;5073361;28;20029;-58
2022/02/12 07:51:56;;;;;;;22.00;7.82;;;0.10;99.90;;;;;;5073393;28;20013;-58
2022/02/12 07:54:21;;;;;;;14.90;6.10;;;0.20;99.90;;;;;;5073198;28;20108;-58
2022/02/12 07:56:47;;;;;;;24.60;7.18;;;0.20;99.90;;;;;;5073190;28;20098;-58
2022/02/12 07:59:13;;;;;;;32.35;8.02;;;0.20;99.90;;;;;;5072585;28;20033;-58
2022/02/12 08:01:39;;;;;;;21.70;7.72;;;0.30;99.90;;;;;;5073151;28;20389;-58
2022/02/12 08:04:05;;;;;;;21.30;8.75;;;0.30;99.90;;;;;;5068360;28;20032;-58
2022/02/12 08:09:14;;;;;;;24.50;8.25;;;0.40;99.90;;;;;;5069911;28;20031;-58
2022/02/12 08:11:42;;;;;;;28.95;7.93;;;0.40;99.90;;;;;;5070101;28;20029;-58
2022/02/12 08:14:07;;;;;;;22.13;7.78;;;0.40;99.90;;;;;;5069873;28;20085;-58
2022/02/12 08:16:33;;;;;;;20.10;7.53;;;0.40;99.90;;;;;;5069825;28;20475;-58
2022/02/12 08:18:58;;;;;;;25.60;7.25;;;0.50;99.90;;;;;;5068144;28;20533;-58
2022/02/12 08:21:24;;;;;;;20.00;7.00;;;0.50;99.90;;;;;;5069992;28;20032;-58
2022/02/12 08:23:50;;;;;;;19.75;7.82;;;0.50;99.90;;;;;;5069892;28;20025;-58
2022/02/12 08:26:15;;;;;;;19.23;7.43;;;0.60;99.90;;;;;;5084799;28;20499;-58
2022/02/12 08:28:41;;;;;;;24.08;7.22;;;0.60;99.90;;;;;;5065316;28;20032;-58
2022/02/12 08:31:07;;;;;;;25.35;7.13;;;0.60;99.90;;;;;;5049729;28;20025;-58
2022/02/12 08:33:33;;;;;;;22.83;7.28;;;0.60;99.90;;;;;;5047944;28;20362;-58
2022/02/12 08:35:58;;;;;;;25.90;7.68;;;0.60;99.90;;;;;;5062314;28;20074;-58
2022/02/12 08:38:24;;;;;;;20.40;7.88;;;0.60;99.90;;;;;;5069830;28;20101;-58
2022/02/12 08:40:50;;;;;;;17.27;7.47;;;0.60;99.90;;;;;;5066608;28;20121;-58
2022/02/12 08:43:15;;;;;;;20.75;9.15;;;0.70;99.90;;;;;;5061986;28;20032;-58
2022/02/12 08:45:44;;;;;;;20.10;6.93;;;0.70;99.90;;;;;;5065708;28;20032;-58
2022/02/12 08:48:09;;;;;;;21.50;7.43;;;0.70;99.90;;;;;;5058201;28;20025;-58
2022/02/12 08:50:36;;;;;;;16.58;6.78;;;0.80;99.90;;;;;;5064389;28;20476;-58
2022/02/12 08:53:02;;;;;;;18.40;7.05;;;0.80;99.90;;;;;;5069467;28;20029;-58
2022/02/12 08:55:28;;;;;;;18.17;7.22;;;0.80;99.90;;;;;;5069441;28;20039;-58
2022/02/12 08:57:54;;;;;;;17.13;6.80;;;0.90;99.90;;;;;;5069644;28;20024;-58
2022/02/12 09:00:21;;;;;;;24.83;8.20;;;1.00;99.90;;;;;;5069774;28;20027;-58
2022/02/12 09:02:47;;;;;;;20.48;8.57;;;1.00;99.90;;;;;;5072367;28;20036;-58
2022/02/12 09:05:12;;;;;;;14.45;7.05;;;1.10;99.90;;;;;;5073003;28;20036;-58
2022/02/12 09:07:38;;;;;;;18.95;6.70;;;1.20;99.90;;;;;;5072664;28;20035;-58
2022/02/12 09:10:05;;;;;;;20.23;6.93;;;1.30;99.90;;;;;;5072029;28;20020;-58
2022/02/12 09:12:31;;;;;;;17.25;6.47;;;1.30;99.90;;;;;;5073189;28;20025;-58
2022/02/12 09:15:07;;;;;;;21.17;6.35;;;1.30;99.90;;;;;;5073509;28;20058;-58
2022/02/12 09:17:33;;;;;;;22.08;6.30;;;1.40;99.90;;;;;;5071266;28;20063;-58
2022/02/12 09:19:58;;;;;;;22.35;6.75;;;1.50;99.90;;;;;;5070713;28;20071;-58
2022/02/12 09:22:25;;;;;;;17.45;6.50;;;1.50;99.90;;;;;;5071077;28;20028;-58
2022/02/12 09:24:51;;;;;;;13.63;6.43;;;1.60;99.90;;;;;;5070138;28;20024;-58
2022/02/12 09:27:16;;;;;;;10.63;6.07;;;1.60;99.90;;;;;;5071815;28;20020;-58
2022/02/12 09:29:43;;;;;;;19.60;7.45;;;1.70;99.90;;;;;;5071815;28;20484;-58
2022/02/12 09:32:08;;;;;;;18.48;6.15;;;1.80;99.90;;;;;;5069490;28;20017;-58
2022/02/12 09:34:34;;;;;;;16.77;5.78;;;1.80;99.90;;;;;;5072155;28;20472;-57
2022/02/12 09:37:00;;;;;;;17.25;6.90;;;1.90;99.90;;;;;;5071242;28;20036;-57
2022/02/12 09:39:25;;;;;;;16.98;5.97;;;2.00;99.90;;;;;;5071808;28;20032;-58
2022/02/12 09:41:53;;;;;;;17.13;6.63;;;2.10;99.90;;;;;;5071860;28;20048;-58
2022/02/12 09:44:19;;;;;;;13.57;6.22;;;2.10;99.80;;;;;;5071425;28;20016;-58
2022/02/12 09:47:26;;;;;;;19.38;5.85;;;2.20;99.90;;;;;;5070435;28;20027;-58
2022/02/12 09:49:58;;;;;;;21.13;5.70;;;2.40;99.50;;;;;;5061647;28;20035;-58
2022/02/12 09:52:29;;;;;;;13.35;5.63;;;2.40;99.20;;;;;;5071600;28;20055;-58
2022/02/12 09:54:55;;;;;;;18.98;5.68;;;2.50;99.00;;;;;;5071807;28;20013;-57
2022/02/12 09:57:21;;;;;;;12.43;4.82;;;2.60;98.60;;;;;;5071302;28;20502;-58
2022/02/12 09:59:46;;;;;;;18.75;5.80;;;2.80;98.50;;;;;;5069938;28;20112;-58
2022/02/12 10:02:18;;;;;;;15.50;5.25;;;2.90;98.30;;;;;;5071330;28;20115;-58
2022/02/12 10:04:44;;;;;;;20.45;5.55;;;3.10;98.20;;;;;;5071422;28;20127;-58
2022/02/12 10:07:25;;;;;;;15.48;4.50;;;3.20;98.00;;;;;;5071384;28;20061;-58
2022/02/12 10:10:20;;;;;;;16.90;5.05;;;3.50;97.60;;;;;;5069683;28;20446;-58
2022/02/12 10:12:47;;;;;;;20.75;4.05;;;3.70;97.00;;;;;;5067290;28;20426;-58
2022/02/12 10:15:24;;;;;;;16.63;4.43;;;3.90;96.00;;;;;;5070583;28;20032;-58
2022/02/12 10:17:54;;;;;;;14.57;4.35;;;4.20;95.80;;;;;;5068942;28;20024;-58
2022/02/12 10:20:29;;;;;;;17.25;4.75;;;4.30;95.00;;;;;;5072358;28;20072;-58
2022/02/12 10:23:01;;;;;;;11.10;4.20;;;4.50;93.20;;;;;;5087595;28;20035;-58
2022/02/12 10:25:27;;;;;;;11.85;4.07;;;4.80;93.30;;;;;;5087455;28;20063;-58
2022/02/12 10:27:58;;;;;;;10.98;3.83;;;5.40;93.00;;;;;;5070991;28;20469;-59
2022/02/12 10:30:25;;;;;;;17.63;4.55;;;7.10;90.60;;;;;;5070295;28;20037;-59
2022/02/12 10:32:55;;;;;;;15.13;4.13;;;8.00;84.50;;;;;;5071811;28;20480;-59
2022/02/12 10:35:20;;;;;;;9.73;3.00;;;8.30;80.20;;;;;;5071944;28;20572;-58
2022/02/12 10:37:49;;;;;;;11.27;4.22;;;8.70;77.00;;;;;;5072066;28;20286;-59
2022/02/12 10:40:15;;;;;;;9.40;3.20;;;9.20;75.60;;;;;;5070697;28;20138;-59
2022/02/12 10:42:44;;;;;;;12.20;3.65;;;9.60;72.60;;;;;;5068506;28;20534;-59
2022/02/12 10:45:18;;;;;;;13.73;4.07;;;10.20;69.40;;;;;;5064658;28;20021;-59
2022/02/12 10:47:44;;;;;;;10.15;3.25;;;10.90;65.90;;;;;;5068996;28;20031;-59
2022/02/12 10:50:10;;;;;;;9.85;2.50;;;11.40;65.20;;;;;;5070358;28;20060;-59
2022/02/12 10:52:42;;;;;;;16.90;3.20;;;12.00;62.10;;;;;;5070535;28;20476;-59
2022/02/12 10:55:19;;;;;;;13.63;3.00;;;13.20;57.60;;;;;;5070523;28;20032;-58
2022/02/12 10:57:45;;;;;;;9.48;2.83;;;14.40;55.80;;;;;;5069013;28;20488;-59
2022/02/12 11:00:11;;;;;;;12.88;3.63;;;16.30;52.80;;;;;;5070112;28;20085;-60
2022/02/12 11:02:39;;;;;;;9.27;2.75;;;17.70;49.00;;;;;;5068791;28;20507;-59
2022/02/12 11:05:06;;;;;;;11.38;3.30;;;18.80;47.20;;;;;;5067727;28;20029;-60
2022/02/12 11:07:42;;;;;;;9.65;4.05;;;19.40;43.80;;;;;;5069960;28;20025;-59
2022/02/12 11:10:13;;;;;;;7.75;2.88;;;19.80;43.50;;;;;;5069920;28;20024;-60
2022/02/12 11:12:39;;;;;;;10.00;3.58;;;19.80;42.40;;;;;;5067893;28;20025;-60
2022/02/12 11:15:05;;;;;;;11.63;3.45;;;19.60;39.90;;;;;;5063090;28;20040;-59
2022/02/12 11:17:33;;;;;;;13.15;4.22;;;18.80;41.90;;;;;;5069869;28;20504;-59
2022/02/12 11:20:00;;;;;;;12.98;3.40;;;17.80;41.10;;;;;;5069766;28;20044;-59
2022/02/12 11:22:25;;;;;;;9.55;3.20;;;16.30;44.10;;;;;;5069777;28;20020;-60
2022/02/12 11:24:51;;;;;;;10.77;2.90;;;15.20;45.90;;;;;;5069101;28;20032;-60
2022/02/12 11:27:25;;;;;;;10.13;3.10;;;15.20;47.70;;;;;;5069931;28;20473;-59
2022/02/12 11:29:55;;;;;;;8.10;2.70;;;15.50;46.60;;;;;;5069383;28;20096;-60
2022/02/12 11:32:23;;;;;;;9.27;3.10;;;16.10;46.70;;;;;;5069670;28;20159;-60
2022/02/12 11:34:55;;;;;;;6.13;2.85;;;16.70;45.00;;;;;;5068749;28;20492;-60
2022/02/12 11:37:31;;;;;;;8.90;2.67;;;17.50;44.30;;;;;;5069589;28;20378;-60
2022/02/12 11:40:22;;;;;;;10.07;3.08;;;18.70;43.00;;;;;;5065091;28;20055;-59
2022/02/12 11:42:49;;;;;;;10.30;3.17;;;18.80;39.90;;;;;;5067764;28;20066;-60
2022/02/12 11:45:31;;;;;;;10.77;3.63;;;18.10;41.50;;;;;;5070299;28;20046;-59
2022/02/12 11:48:31;;;;;;;7.82;3.20;;;17.80;42.50;;;;;;5070481;28;20062;-60
2022/02/12 11:51:04;;;;;;;10.20;2.83;;;18.30;43.00;;;;;;5069114;28;20082;-59
2022/02/12 11:53:33;;;;;;;6.57;2.58;;;18.50;41.40;;;;;;5070368;28;20090;-60
2022/02/12 11:56:04;;;;;;;10.30;2.80;;;18.80;41.20;;;;;;5052169;28;20064;-60
2022/02/12 11:58:41;;;;;;;7.47;2.90;;;18.90;40.70;;;;;;5070047;28;20028;-60
2022/02/12 12:01:22;;;;;;;9.07;3.05;;;18.90;40.80;;;;;;5070092;28;20050;-60
2022/02/12 12:04:00;;;;;;;8.02;3.25;;;18.30;39.70;;;;;;5070185;28;20032;-60
2022/02/12 12:06:26;;;;;;;8.38;2.90;;;17.20;41.80;;;;;;5069993;28;20021;-60
2022/02/12 12:09:07;;;;;;;11.98;4.18;;;16.50;43.50;;;;;;5068588;28;20067;-60
2022/02/12 12:11:41;;;;;;;10.38;3.67;;;16.50;43.90;;;;;;5049898;28;20025;-60
2022/02/12 12:14:22;;;;;;;8.15;3.17;;;16.90;43.80;;;;;;5049879;28;20053;-60
2022/02/12 12:16:59;;;;;;;6.97;2.63;;;16.70;42.70;;;;;;5057786;28;20020;-59
2022/02/12 12:19:28;;;;;;;6.63;2.40;;;16.60;43.50;;;;;;5069805;28;20490;-60
2022/02/12 12:22:02;;;;;;;11.10;3.20;;;16.60;42.40;;;;;;5071138;28;20032;-59
2022/02/12 12:24:28;;;;;;;7.93;2.33;;;16.50;42.90;;;;;;5085171;28;20098;-60
2022/02/12 12:26:54;;;;;;;6.72;1.92;;;16.30;42.80;;;;;;5064328;28;20043;-60
2022/02/12 12:32:10;;;;;;;10.27;2.15;;;17.70;40.10;;;;;;5066815;28;20105;-60
2022/02/12 12:34:48;;;;;;;7.45;2.10;;;17.60;40.60;;;;;;5068861;28;20533;-60
2022/02/12 12:37:13;;;;;;;10.02;2.42;;;18.50;40.20;;;;;;5082031;28;20388;-60
2022/02/12 12:39:39;;;;;;;11.95;2.13;;;18.80;37.60;;;;;;5068673;28;20028;-60
2022/02/12 12:42:16;;;;;;;8.25;2.45;;;18.80;37.70;;;;;;5069714;28;20095;-60
2022/02/12 12:44:42;;;;;;;6.70;1.98;;;18.60;38.70;;;;;;5068258;28;20499;-61
2022/02/12 12:47:08;;;;;;;5.40;2.22;;;18.70;38.40;;;;;;5070077;28;20035;-60
2022/02/12 12:49:41;;;;;;;7.82;1.85;;;18.60;36.00;;;;;;5069153;28;20037;-60
2022/02/12 12:52:09;;;;;;;5.10;1.70;;;18.20;36.20;;;;;;5068778;28;20029;-60